Time;durP1;ratioP1;P1;durP2;ratioP2;P2;SDS_P1;SDS_P2;PMS_P1;PMS_P2;Temp;Humidity;BMP_temperature;BMP_pressure;BME280_temperature;BME280_humidity;BME280_pressure;Samples;Min_cycle;Max_cycle;Signal;HPM_P1;HPM_P2
2022/07/17 00:02:38;;;;;;;3.40;2.12;;;;;;;10.69;100.00;99315.17;2205688;80;21020;-87
2022/07/17 00:05:38;;;;;;;4.62;2.75;;;;;;;10.67;100.00;99317.64;2216815;80;21512;-88
2022/07/17 00:08:39;;;;;;;2.52;2.33;;;;;;;10.63;100.00;99314.54;2206036;79;20978;-88
2022/07/17 00:11:41;;;;;;;3.85;2.47;;;;;;;10.61;100.00;99314.39;2212326;80;21109;-88
2022/07/17 00:14:42;;;;;;;5.12;2.10;;;;;;;10.60;100.00;99317.47;2207084;80;21048;-87
2022/07/17 00:17:43;;;;;;;7.25;2.35;;;;;;;10.60;100.00;99320.58;2216979;80;20930;-89
2022/07/17 00:20:43;;;;;;;3.70;2.27;;;;;;;10.54;100.00;99323.39;2211824;80;21343;-85
2022/07/17 00:23:44;;;;;;;5.67;3.20;;;;;;;10.54;100.00;99323.39;2216831;80;20978;-87
2022/07/17 00:26:45;;;;;;;5.40;2.62;;;;;;;10.53;100.00;99328.30;2214548;80;20992;-85
2022/07/17 00:29:46;;;;;;;4.83;2.47;;;;;;;10.48;100.00;99331.88;2209357;80;21016;-88
2022/07/17 00:32:46;;;;;;;5.17;3.20;;;;;;;10.44;100.00;99327.48;2204609;79;21025;-87
2022/07/17 00:35:47;;;;;;;6.97;2.40;;;;;;;10.42;100.00;99330.76;2216702;80;20939;-84
2022/07/17 00:38:48;;;;;;;3.40;2.40;;;;;;;10.39;100.00;99335.48;2209663;80;21589;-86
2022/07/17 00:41:49;;;;;;;3.15;2.65;;;;;;;10.37;100.00;99340.07;2213161;80;21032;-88
2022/07/17 00:44:50;;;;;;;6.60;2.60;;;;;;;10.35;100.00;99345.47;2212749;80;21473;-87
2022/07/17 00:47:51;;;;;;;5.90;2.60;;;;;;;10.33;100.00;99340.87;2211475;80;20978;-86
2022/07/17 00:50:51;;;;;;;6.58;2.72;;;;;;;10.31;100.00;99343.33;2205887;80;20999;-87
2022/07/17 00:53:52;;;;;;;5.95;2.98;;;;;;;10.29;100.00;99351.84;2209023;80;21012;-87
2022/07/17 00:56:53;;;;;;;6.75;2.90;;;;;;;10.28;100.00;99347.09;2116080;83;21019;-87
2022/07/17 00:59:54;;;;;;;4.45;2.47;;;;;;;10.27;100.00;99346.77;2129751;83;21037;-87
2022/07/17 01:02:54;;;;;;;5.75;2.60;;;;;;;10.25;100.00;99343.50;2122102;83;20995;-89
2022/07/17 01:05:57;;;;;;;5.03;2.98;;;;;;;10.31;100.00;99357.72;2138044;82;20990;-88
2022/07/17 01:08:58;;;;;;;2.05;1.90;;;;;;;10.34;100.00;99351.69;2143747;83;21014;-81
2022/07/17 01:11:58;;;;;;;5.20;2.25;;;;;;;10.37;100.00;99359.21;2132319;83;21013;-89
2022/07/17 01:14:59;;;;;;;5.55;3.10;;;;;;;10.33;100.00;99357.88;2131984;82;21010;-88
2022/07/17 01:18:00;;;;;;;4.08;2.30;;;;;;;10.34;100.00;99360.03;2131578;83;21093;-87
2022/07/17 01:21:01;;;;;;;3.70;2.50;;;;;;;10.32;100.00;99360.17;2164773;81;21018;-87
2022/07/17 01:24:01;;;;;;;3.65;2.30;;;;;;;10.31;100.00;99356.41;2161621;82;20994;-86
2022/07/17 01:27:02;;;;;;;3.05;2.02;;;;;;;10.30;100.00;99360.02;2136802;83;21085;-87
2022/07/17 01:30:03;;;;;;;3.12;2.27;;;;;;;10.28;100.00;99360.67;2140662;83;21041;-87
2022/07/17 01:33:03;;;;;;;5.50;2.35;;;;;;;10.24;100.00;99359.70;2136644;83;21058;-88
2022/07/17 01:36:04;;;;;;;5.03;2.02;;;;;;;10.21;100.00;99357.84;2136557;82;21026;-87
2022/07/17 01:39:05;;;;;;;2.52;2.17;;;;;;;10.18;100.00;99360.30;2141218;83;21022;-87
2022/07/17 01:42:06;;;;;;;5.75;2.50;;;;;;;10.14;100.00;99352.42;2141627;83;21061;-86
2022/07/17 01:45:14;;;;;;;3.83;2.45;;;;;;;10.13;100.00;99357.83;2145820;82;21007;-88
2022/07/17 01:48:14;;;;;;;5.40;2.77;;;;;;;10.09;100.00;99352.59;2155152;82;21166;-85
2022/07/17 01:51:15;;;;;;;3.37;2.20;;;;;;;10.04;100.00;99350.94;2143246;82;22117;-87
2022/07/17 01:54:16;;;;;;;8.55;3.27;;;;;;;10.01;100.00;99356.02;2151475;82;21011;-88
2022/07/17 01:57:17;;;;;;;5.08;2.70;;;;;;;9.98;100.00;99355.85;2153434;82;21010;-87
2022/07/17 02:00:17;;;;;;;2.10;2.00;;;;;;;9.96;100.00;99350.42;2152556;82;20983;-85
2022/07/17 02:03:19;;;;;;;4.67;3.58;;;;;;;9.94;100.00;99354.52;2157581;82;21005;-87
2022/07/17 02:06:19;;;;;;;4.72;2.40;;;;;;;9.95;100.00;99355.33;2158538;82;21114;-86
2022/07/17 02:09:20;;;;;;;4.35;2.83;;;;;;;9.95;100.00;99348.30;2158790;82;21006;-87
2022/07/17 02:12:21;;;;;;;6.90;2.40;;;;;;;9.93;100.00;99354.19;2157640;82;20970;-86
2022/07/17 02:15:21;;;;;;;3.95;2.75;;;;;;;9.93;100.00;99343.73;2157702;82;20974;-85
2022/07/17 02:18:22;;;;;;;7.75;3.17;;;;;;;9.92;100.00;99351.25;2158588;82;21070;-85
2022/07/17 02:21:23;;;;;;;11.93;3.42;;;;;;;9.86;100.00;99347.95;2148715;82;21605;-86
2022/07/17 02:24:24;;;;;;;4.10;2.77;;;;;;;9.81;100.00;99340.27;2155303;82;21117;-87
2022/07/17 02:27:24;;;;;;;5.20;2.25;;;;;;;9.88;100.00;99343.89;2150929;82;21082;-87
2022/07/17 02:30:25;;;;;;;2.98;2.65;;;;;;;9.91;100.00;99341.77;2157977;82;21477;-88
2022/07/17 02:33:26;;;;;;;2.90;1.92;;;;;;;9.97;100.00;99346.37;2143440;82;21050;-87
2022/07/17 02:36:27;;;;;;;3.17;1.62;;;;;;;10.01;100.00;99346.86;2147191;82;21042;-87
2022/07/17 02:39:27;;;;;;;3.90;2.37;;;;;;;10.05;100.00;99349.47;2143091;82;21038;-87
2022/07/17 02:42:28;;;;;;;3.22;1.80;;;;;;;10.05;100.00;99356.50;2157939;82;21606;-84
2022/07/17 02:45:29;;;;;;;3.77;2.55;;;;;;;10.05;100.00;99357.31;2145601;82;21038;-86
2022/07/17 02:48:29;;;;;;;4.33;2.10;;;;;;;10.06;100.00;99364.22;2154566;82;21046;-87
2022/07/17 02:51:30;;;;;;;6.60;2.70;;;;;;;9.99;100.00;99356.67;2159895;82;21041;-86
2022/07/17 02:54:31;;;;;;;3.83;1.95;;;;;;;9.98;100.00;99364.19;2151854;82;21544;-82
2022/07/17 02:57:31;;;;;;;6.95;2.55;;;;;;;9.95;100.00;99367.92;2150604;81;21049;-83
2022/07/17 03:00:32;;;;;;;4.37;1.90;;;;;;;10.03;100.00;99372.36;2148772;82;21018;-87
2022/07/17 03:03:34;;;;;;;4.55;2.02;;;;;;;10.19;100.00;99378.13;2156126;82;21098;-88
2022/07/17 03:06:35;;;;;;;2.98;1.80;;;;;;;10.44;100.00;99379.84;2154250;82;20979;-85
2022/07/17 03:09:36;;;;;;;5.47;2.00;;;;;;;10.72;100.00;99379.03;2153130;82;21006;-87
2022/07/17 03:12:36;;;;;;;8.75;1.90;;;;;;;11.04;100.00;99382.59;2143679;82;21038;-88
2022/07/17 03:15:37;;;;;;;3.77;1.57;;;;;;;11.46;100.00;99381.53;2157645;82;21439;-88
2022/07/17 03:18:38;;;;;;;5.28;1.77;;;;;;;11.77;100.00;99380.25;2160667;82;21525;-88
2022/07/17 03:21:38;;;;;;;3.27;1.60;;;;;;;12.16;100.00;99388.11;2142982;82;21129;-88
2022/07/17 03:24:39;;;;;;;2.30;1.90;;;;;;;12.61;100.00;99386.00;2150411;82;20983;-88
2022/07/17 03:27:40;;;;;;;4.92;1.98;;;;;;;12.91;100.00;99388.73;2149319;82;21053;-87
2022/07/17 03:30:41;;;;;;;4.00;1.50;;;;;;;13.31;100.00;99387.04;2160471;82;20975;-82
2022/07/17 03:33:41;;;;;;;3.80;1.82;;;;;;;13.78;100.00;99400.81;2159824;82;21125;-88
2022/07/17 03:36:42;;;;;;;2.67;1.82;;;;;;;14.23;100.00;99396.59;2151227;82;21081;-87
2022/07/17 03:39:43;;;;;;;2.70;1.40;;;;;;;14.65;100.00;99399.48;2158276;82;21038;-87
2022/07/17 03:42:43;;;;;;;4.12;1.72;;;;;;;15.14;100.00;99402.10;2155582;82;21062;-88
2022/07/17 03:45:44;;;;;;;4.47;1.98;;;;;;;15.81;100.00;99399.36;2150163;82;21120;-89
2022/07/17 03:48:45;;;;;;;3.58;2.00;;;;;;;16.17;100.00;99397.77;2157318;82;20999;-88
2022/07/17 03:51:45;;;;;;;5.90;1.82;;;;;;;16.63;100.00;99398.37;2151091;82;21093;-87
2022/07/17 03:54:47;;;;;;;3.65;1.75;;;;;;;17.06;100.00;99400.16;2159458;82;21011;-87
2022/07/17 03:57:48;;;;;;;3.10;1.67;;;;;;;17.40;100.00;99403.07;2143957;82;20994;-88
2022/07/17 04:00:48;;;;;;;3.55;1.37;;;;;;;17.83;100.00;99400.74;2157658;83;20991;-87
2022/07/17 04:03:49;;;;;;;6.67;1.60;;;;;;;18.20;100.00;99406.28;2124172;82;20999;-86
2022/07/17 04:06:50;;;;;;;2.12;1.05;;;;;;;18.40;100.00;99405.66;2136497;83;21073;-86
2022/07/17 04:09:51;;;;;;;4.83;1.02;;;;;;;18.66;100.00;99410.01;2140870;83;20998;-85
2022/07/17 04:12:51;;;;;;;3.45;1.32;;;;;;;19.13;100.00;99414.95;2143009;83;21014;-82
2022/07/17 04:15:52;;;;;;;1.57;1.25;;;;;;;19.56;100.00;99417.60;2165173;82;21045;-82
2022/07/17 04:18:53;;;;;;;3.10;1.37;;;;;;;19.91;100.00;99415.69;2157172;82;21087;-88
2022/07/17 04:21:54;;;;;;;3.02;0.90;;;;;;;20.14;100.00;99409.98;2112795;83;21059;-88
2022/07/17 04:24:55;;;;;;;2.95;1.42;;;;;;;20.42;100.00;99417.37;2119279;83;21511;-87
2022/07/17 04:27:55;;;;;;;3.87;0.95;;;;;;;20.54;100.00;99420.61;2152972;82;21573;-87
2022/07/17 04:30:56;;;;;;;4.08;1.67;;;;;;;20.85;100.00;99417.69;2129226;83;21009;-87
2022/07/17 04:34:00;;;;;;;1.25;0.68;;;;;;;21.17;100.00;99428.82;2162951;82;20994;-88
2022/07/17 04:37:00;;;;;;;3.45;1.00;;;;;;;21.45;100.00;99426.82;2162286;82;21046;-88
2022/07/17 04:40:01;;;;;;;3.20;1.82;;;;;;;21.37;100.00;99435.16;2160543;82;20979;-87
2022/07/17 04:43:02;;;;;;;5.10;1.42;;;;;;;21.71;100.00;99436.70;2167733;82;21082;-82
2022/07/17 04:46:02;;;;;;;2.00;1.25;;;;;;;22.11;100.00;99438.88;2137323;83;21053;-88
2022/07/17 04:49:03;;;;;;;2.42;1.50;;;;;;;22.39;100.00;99439.94;2136103;82;21066;-87
2022/07/17 04:52:04;;;;;;;2.62;1.05;;;;;;;22.63;100.00;99449.98;2141692;83;21021;-87
2022/07/17 04:55:05;;;;;;;1.75;0.80;;;;;;;22.78;100.00;99444.12;2140619;83;20978;-86
2022/07/17 04:58:06;;;;;;;1.77;0.98;;;;;;;23.20;100.00;99448.55;2140446;83;21002;-85
2022/07/17 05:01:06;;;;;;;3.12;1.10;;;;;;;23.67;100.00;99450.32;2138099;83;21588;-86
2022/07/17 05:04:07;;;;;;;4.28;1.02;;;;;;;23.94;98.28;99451.73;2141010;83;21117;-88
2022/07/17 05:07:08;;;;;;;2.72;1.10;;;;;;;24.12;80.00;99456.77;2140953;83;21029;-89
2022/07/17 05:10:08;;;;;;;4.40;1.25;;;;;;;23.94;66.94;99450.93;2133749;82;21532;-88
2022/07/17 05:13:09;;;;;;;1.92;1.17;;;;;;;23.77;62.10;99455.83;2106593;83;20958;-87
2022/07/17 05:16:10;;;;;;;2.27;1.37;;;;;;;23.42;61.77;99453.97;2140649;82;21079;-87
2022/07/17 05:19:11;;;;;;;2.58;1.12;;;;;;;22.90;60.94;99462.23;2128166;82;21041;-87
2022/07/17 05:22:11;;;;;;;4.15;1.27;;;;;;;22.36;61.37;99457.23;2143065;83;21529;-89
2022/07/17 05:25:12;;;;;;;2.85;1.20;;;;;;;22.08;61.03;99456.70;2140293;83;21121;-87
2022/07/17 05:28:13;;;;;;;4.97;1.47;;;;;;;21.91;61.76;99458.45;2136326;83;21013;-87
2022/07/17 05:31:14;;;;;;;4.35;1.60;;;;;;;21.44;64.09;99463.83;2140145;83;21096;-86
2022/07/17 05:34:14;;;;;;;4.80;1.32;;;;;;;21.11;64.26;99472.33;2140299;83;21524;-86
2022/07/17 05:37:15;;;;;;;2.60;1.30;;;;;;;20.84;65.27;99475.11;2140548;83;21545;-85
2022/07/17 05:40:16;;;;;;;5.25;1.57;;;;;;;20.57;65.47;99473.34;2135696;83;21116;-90
2022/07/17 05:43:16;;;;;;;4.20;1.47;;;;;;;20.51;67.11;99480.92;2131644;83;21010;-91
2022/07/17 05:46:17;;;;;;;3.40;1.45;;;;;;;20.37;66.93;99475.73;2137143;83;21042;-89
2022/07/17 05:49:18;;;;;;;3.08;1.30;;;;;;;20.25;67.20;99480.19;2141361;83;21029;-88
2022/07/17 05:52:19;;;;;;;3.35;1.45;;;;;;;20.25;68.53;99484.70;2140856;83;20954;-87
2022/07/17 05:55:19;;;;;;;4.33;1.35;;;;;;;20.32;68.33;99481.45;2138730;83;21512;-86
2022/07/17 05:58:20;;;;;;;3.92;2.05;;;;;;;20.35;70.23;99488.44;2143099;83;21578;-86
2022/07/17 06:01:21;;;;;;;4.00;1.72;;;;;;;20.46;69.51;99497.54;2137529;83;20982;-85
2022/07/17 06:04:21;;;;;;;4.47;1.40;;;;;;;20.31;69.77;99497.92;2140572;83;21008;-87
2022/07/17 06:07:22;;;;;;;3.98;1.62;;;;;;;20.27;70.37;99497.24;2140346;83;21049;-87
2022/07/17 06:10:23;;;;;;;3.12;1.37;;;;;;;20.31;70.50;99499.25;2142001;83;21109;-87
2022/07/17 06:13:24;;;;;;;5.47;1.55;;;;;;;20.36;69.69;99506.54;2144366;83;21064;-86
2022/07/17 06:16:24;;;;;;;4.42;1.27;;;;;;;20.33;68.09;99512.31;2137947;83;21009;-88
2022/07/17 06:19:25;;;;;;;3.67;1.22;;;;;;;20.00;68.69;99514.83;2134345;83;21050;-86
2022/07/17 06:22:26;;;;;;;9.45;2.42;;;;;;;19.84;69.55;99510.08;2140700;83;21556;-87
2022/07/17 06:25:27;;;;;;;3.60;1.40;;;;;;;19.76;70.54;99510.40;2143134;82;21525;-87
2022/07/17 06:28:27;;;;;;;3.35;1.20;;;;;;;19.83;70.87;99513.78;2147133;82;21014;-87
2022/07/17 06:31:28;;;;;;;7.33;1.50;;;;;;;19.71;70.87;99511.04;2154339;82;21014;-85
2022/07/17 06:34:32;;;;;;;3.15;1.45;;;;;;;19.48;70.72;99514.81;2154354;81;21593;-86
2022/07/17 06:37:32;;;;;;;4.97;1.40;;;;;;;19.24;72.19;99517.77;2151436;82;21029;-86
2022/07/17 06:40:33;;;;;;;4.25;1.22;;;;;;;19.23;73.54;99518.28;2157028;82;21125;-85
2022/07/17 06:43:34;;;;;;;3.08;1.65;;;;;;;19.33;74.04;99514.63;2156646;83;21593;-85
2022/07/17 06:46:35;;;;;;;3.02;1.27;;;;;;;19.26;74.21;99517.02;2157506;82;21038;-85
2022/07/17 06:49:36;;;;;;;3.45;1.37;;;;;;;19.10;74.89;99514.89;2154364;82;21065;-86
2022/07/17 06:52:36;;;;;;;2.00;1.40;;;;;;;18.96;75.20;99515.52;2150446;82;21569;-86
2022/07/17 06:55:37;;;;;;;3.55;1.30;;;;;;;18.84;75.83;99523.86;2156904;82;21585;-86
2022/07/17 06:58:38;;;;;;;2.67;2.08;;;;;;;18.69;77.08;99516.99;2153080;82;21045;-86
2022/07/17 07:01:38;;;;;;;4.65;1.70;;;;;;;18.69;77.94;99522.30;2158322;81;21062;-86
2022/07/17 07:04:39;;;;;;;3.20;1.62;;;;;;;18.70;78.26;99521.27;2144648;81;21003;-85
2022/07/17 07:07:40;;;;;;;6.50;2.35;;;;;;;18.83;79.11;99524.86;2152029;82;21022;-87
2022/07/17 07:10:42;;;;;;;2.85;1.75;;;;;;;18.95;80.34;99524.50;2136945;82;21038;-86
2022/07/17 07:13:43;;;;;;;3.20;1.40;;;;;;;19.12;80.43;99520.82;2154156;82;21067;-86
2022/07/17 07:16:44;;;;;;;3.12;1.20;;;;;;;19.20;79.12;99524.52;2151104;82;21049;-88
2022/07/17 07:19:44;;;;;;;5.17;1.37;;;;;;;19.20;78.13;99525.84;2156955;82;21030;-87
2022/07/17 07:22:45;;;;;;;6.72;2.05;;;;;;;19.14;78.34;99526.72;2156728;82;21039;-87
2022/07/17 07:25:46;;;;;;;2.75;1.17;;;;;;;19.11;78.85;99527.97;2140520;82;21549;-85
2022/07/17 07:28:47;;;;;;;2.87;1.20;;;;;;;19.11;78.19;99530.63;2148113;82;21010;-85
2022/07/17 07:31:48;;;;;;;1.77;0.88;;;;;;;19.03;77.44;99523.73;2156947;82;21486;-84
2022/07/17 07:34:48;;;;;;;1.10;0.78;;;;;;;19.05;78.50;99539.44;2147023;82;21022;-86
2022/07/17 07:37:49;;;;;;;1.75;1.00;;;;;;;18.91;74.54;99538.69;2158116;82;21074;-86
2022/07/17 07:40:50;;;;;;;4.15;0.90;;;;;;;18.87;76.50;99536.69;2157247;81;21058;-84
2022/07/17 07:43:50;;;;;;;2.72;1.15;;;;;;;18.92;74.08;99536.84;2126980;82;21014;-86
2022/07/17 07:46:51;;;;;;;4.85;1.32;;;;;;;19.00;74.62;99540.06;2138467;83;20966;-87
2022/07/17 07:49:52;;;;;;;3.00;1.07;;;;;;;19.18;75.29;99551.80;2161277;82;21028;-87
2022/07/17 07:52:54;;;;;;;2.25;1.07;;;;;;;19.36;73.15;99553.70;2156027;82;21560;-88
2022/07/17 07:55:55;;;;;;;4.87;1.25;;;;;;;19.54;72.57;99558.56;2160443;82;20972;-85
2022/07/17 07:58:56;;;;;;;2.98;0.82;;;;;;;19.68;73.55;99559.31;2146168;82;21068;-88
2022/07/17 08:01:56;;;;;;;2.70;1.10;;;;;;;19.92;72.39;99553.65;2158095;82;21045;-86
2022/07/17 08:04:57;;;;;;;3.30;1.07;;;;;;;20.16;71.61;99563.94;2160367;82;22115;-87
2022/07/17 08:07:58;;;;;;;3.30;1.75;;;;;;;20.27;70.25;99568.52;2159756;82;21120;-86
2022/07/17 08:10:59;;;;;;;2.30;1.00;;;;;;;20.47;71.30;99564.84;2161095;82;21003;-86
2022/07/17 08:13:59;;;;;;;2.15;1.02;;;;;;;20.55;67.93;99566.69;2161653;82;21097;-87
2022/07/17 08:17:00;;;;;;;2.08;1.00;;;;;;;20.60;66.16;99568.17;2163550;82;21026;-85
2022/07/17 08:20:01;;;;;;;2.95;0.70;;;;;;;20.48;67.24;99569.13;2161442;82;21477;-88
2022/07/17 08:23:02;;;;;;;2.27;1.98;;;;;;;20.60;65.96;99562.04;2156515;82;21064;-88
2022/07/17 08:26:03;;;;;;;1.05;1.02;;;;;;;20.80;65.78;99574.56;2159441;82;21042;-86
2022/07/17 08:29:05;;;;;;;1.37;0.60;;;;;;;20.88;60.83;99564.94;2159047;82;21065;-86
2022/07/17 08:32:06;;;;;;;3.52;1.45;;;;;;;20.78;64.53;99579.30;2164207;82;21053;-87
2022/07/17 08:35:07;;;;;;;0.68;0.55;;;;;;;20.81;61.92;99578.03;2156041;82;21494;-88
2022/07/17 08:38:07;;;;;;;2.05;0.98;;;;;;;20.87;60.06;99570.48;2155779;81;21065;-86
2022/07/17 08:41:10;;;;;;;2.42;1.20;;;;;;;20.78;59.89;99581.97;2152567;81;21048;-89
2022/07/17 08:44:10;;;;;;;2.52;0.72;;;;;;;20.90;61.78;99578.83;2152968;82;21108;-88
2022/07/17 08:47:11;;;;;;;1.65;0.90;;;;;;;20.96;56.80;99579.78;2163648;82;21029;-86
2022/07/17 08:50:12;;;;;;;2.15;0.80;;;;;;;21.07;59.44;99579.01;2148009;82;21036;-88
2022/07/17 08:53:15;;;;;;;1.72;0.57;;;;;;;21.07;55.74;99587.52;2162279;82;21025;-86
2022/07/17 08:56:15;;;;;;;2.70;0.60;;;;;;;20.99;54.98;99588.64;2164282;82;21558;-88
2022/07/17 08:59:16;;;;;;;2.80;0.70;;;;;;;20.90;53.11;99587.33;2164295;82;21181;-90
2022/07/17 09:02:17;;;;;;;1.85;0.40;;;;;;;20.88;52.65;99592.08;2164720;82;21065;-91
2022/07/17 09:05:18;;;;;;;1.30;0.40;;;;;;;20.81;53.17;99584.69;2161265;81;21025;-89
2022/07/17 09:08:19;;;;;;;1.40;1.30;;;;;;;20.93;52.86;99575.70;2150852;82;21101;-86
2022/07/17 09:11:20;;;;;;;0.70;0.45;;;;;;;20.86;53.39;99574.20;2164504;82;21541;-90
2022/07/17 09:14:21;;;;;;;1.60;0.60;;;;;;;20.95;53.26;99578.16;2166065;82;20966;-85
2022/07/17 09:17:24;;;;;;;1.35;0.57;;;;;;;21.10;52.04;99584.39;2165620;82;21049;-87
2022/07/17 09:20:24;;;;;;;1.95;0.65;;;;;;;21.10;50.48;99578.55;2160068;81;21057;-85
2022/07/17 09:23:25;;;;;;;2.00;0.70;;;;;;;21.13;48.97;99574.11;2155522;82;21005;-89
2022/07/17 09:26:26;;;;;;;3.58;1.00;;;;;;;21.33;49.41;99578.36;2157075;82;21066;-86
2022/07/17 09:29:26;;;;;;;1.57;0.60;;;;;;;21.54;47.00;99584.47;2148401;81;21001;-88
2022/07/17 09:32:27;;;;;;;3.45;0.55;;;;;;;21.47;46.38;99589.89;2153460;82;20986;-88
2022/07/17 09:35:28;;;;;;;3.35;0.50;;;;;;;21.40;46.64;99574.56;2160173;82;21037;-87
2022/07/17 09:38:29;;;;;;;1.85;0.57;;;;;;;21.31;45.49;99587.92;2130445;82;21010;-86
2022/07/17 09:41:33;;;;;;;2.50;0.60;;;;;;;21.18;46.13;99582.73;2159163;82;21014;-87
2022/07/17 09:44:32;;;;;;;0.70;0.40;;;;;;;21.03;46.45;99588.50;2155891;82;21056;-88
2022/07/17 09:47:33;;;;;;;0.80;0.53;;;;;;;21.07;45.92;99580.86;2159420;82;21512;-88
2022/07/17 09:50:33;;;;;;;2.62;0.93;;;;;;;21.16;48.05;99583.49;2164057;82;21540;-88
2022/07/17 09:53:34;;;;;;;4.30;1.07;;;;;;;21.22;47.73;99581.27;2156451;82;21045;-88
2022/07/17 09:56:35;;;;;;;1.37;0.70;;;;;;;21.15;47.91;99578.69;2161478;82;21034;-86
2022/07/17 09:59:36;;;;;;;1.95;0.78;;;;;;;21.20;46.41;99581.98;2161043;82;21045;-89
2022/07/17 10:02:36;;;;;;;4.03;0.62;;;;;;;21.35;47.40;99585.59;2161924;82;21013;-85
2022/07/17 10:05:37;;;;;;;1.75;0.82;;;;;;;21.50;46.93;99588.65;2165484;81;21061;-87
2022/07/17 10:08:38;;;;;;;2.47;0.55;;;;;;;21.61;47.48;99588.37;2164033;82;21560;-87
2022/07/17 10:11:39;;;;;;;2.10;1.15;;;;;;;21.69;47.30;99598.69;2155993;82;21150;-89
2022/07/17 10:14:41;;;;;;;3.25;0.55;;;;;;;21.66;47.90;99600.47;2159716;82;21017;-87
2022/07/17 10:17:42;;;;;;;1.00;0.80;;;;;;;21.54;46.99;99590.61;2159276;82;21017;-87
2022/07/17 10:20:42;;;;;;;1.52;1.00;;;;;;;21.52;47.22;99595.36;2163731;82;21038;-90
2022/07/17 10:23:43;;;;;;;5.25;0.90;;;;;;;21.71;47.66;99593.94;2163844;81;21083;-88
2022/07/17 10:26:49;;;;;;;3.92;1.00;;;;;;;21.93;46.88;99587.50;2157118;81;21048;-87
2022/07/17 10:29:47;;;;;;;3.98;0.85;;;;;;;21.92;46.60;99584.55;2163528;81;21014;-85
2022/07/17 10:32:48;;;;;;;2.25;0.78;;;;;;;21.97;47.39;99591.34;2133228;82;21585;-90
2022/07/17 10:35:51;;;;;;;3.47;0.62;;;;;;;22.03;46.61;99592.53;2160048;82;21041;-87
2022/07/17 10:38:52;;;;;;;1.75;0.53;;;;;;;22.04;47.68;99587.52;2161590;82;21072;-81
2022/07/17 10:41:52;;;;;;;1.42;0.42;;;;;;;22.03;46.58;99591.72;2156932;82;21048;-87
2022/07/17 10:44:53;;;;;;;0.55;0.40;;;;;;;21.99;47.50;99595.91;2152714;82;21065;-88
2022/07/17 10:47:54;;;;;;;0.60;0.47;;;;;;;22.02;47.13;99595.44;2157923;82;21080;-86
2022/07/17 10:50:55;;;;;;;0.70;0.70;;;;;;;22.04;46.18;99592.85;2159809;82;21022;-88
2022/07/17 10:53:58;;;;;;;1.87;0.68;;;;;;;22.02;44.81;99602.91;2161639;82;21060;-88
2022/07/17 10:56:59;;;;;;;7.50;1.45;;;;;;;22.10;44.77;99593.27;2149284;81;21124;-88
2022/07/17 10:59:59;;;;;;;1.62;1.10;;;;;;;22.23;44.51;99580.75;2164515;82;21005;-88
2022/07/17 11:03:00;;;;;;;1.77;0.80;;;;;;;22.47;45.90;99586.83;2163964;82;21620;-89
2022/07/17 11:06:01;;;;;;;1.95;0.62;;;;;;;22.61;44.92;99582.34;2158068;82;21026;-86
2022/07/17 11:09:02;;;;;;;1.47;0.62;;;;;;;22.50;44.56;99585.85;2118569;83;21110;-87
2022/07/17 11:12:03;;;;;;;1.22;0.60;;;;;;;22.37;43.52;99595.44;2114668;83;21113;-86
2022/07/17 11:15:03;;;;;;;2.80;0.60;;;;;;;22.15;42.88;99589.91;2152604;82;21069;-87
2022/07/17 11:18:04;;;;;;;0.50;0.45;;;;;;;21.96;42.57;99587.06;2152888;82;21021;-86
2022/07/17 11:21:05;;;;;;;1.37;0.68;;;;;;;21.91;43.88;99573.59;2155866;82;20950;-87
2022/07/17 11:24:09;;;;;;;1.02;0.65;;;;;;;21.92;43.29;99588.02;2144070;82;21133;-89
2022/07/17 11:27:09;;;;;;;1.50;0.88;;;;;;;21.72;44.17;99583.56;2151495;82;22112;-88
2022/07/17 11:30:10;;;;;;;2.58;1.40;;;;;;;21.63;44.76;99587.09;2156893;82;21537;-87
2022/07/17 11:33:11;;;;;;;0.50;0.45;;;;;;;21.68;44.98;99587.22;2145635;82;21086;-88
2022/07/17 11:36:12;;;;;;;0.42;0.42;;;;;;;21.76;43.86;99582.05;2151133;82;21017;-88
2022/07/17 11:39:13;;;;;;;2.75;0.90;;;;;;;21.75;42.34;99577.77;2144272;82;21100;-89
2022/07/17 11:42:13;;;;;;;1.37;0.60;;;;;;;21.74;43.69;99586.28;2146286;82;21085;-87
2022/07/17 11:45:14;;;;;;;1.30;0.78;;;;;;;21.67;43.00;99583.43;2146923;82;21044;-89
2022/07/17 11:48:22;;;;;;;1.35;0.98;;;;;;;21.62;44.10;99588.66;2150460;82;21020;-89
2022/07/17 11:51:20;;;;;;;2.30;0.60;;;;;;;21.53;44.37;99583.66;2153657;82;21054;-88
2022/07/17 11:54:21;;;;;;;1.37;0.70;;;;;;;21.49;44.81;99588.36;2148674;82;21582;-87
2022/07/17 11:57:21;;;;;;;1.10;0.60;;;;;;;21.46;44.62;99591.46;2153522;83;21045;-88
2022/07/17 12:00:22;;;;;;;1.80;0.70;;;;;;;21.42;43.43;99592.97;2148637;82;21040;-88
2022/07/17 12:03:23;;;;;;;1.62;0.80;;;;;;;21.32;43.28;99584.73;2155846;83;21045;-85
2022/07/17 12:06:24;;;;;;;1.60;0.95;;;;;;;21.29;44.81;99576.66;2141955;82;21048;-84
2022/07/17 12:09:25;;;;;;;1.57;0.50;;;;;;;21.29;43.47;99581.45;2139852;82;21076;-82
2022/07/17 12:12:26;;;;;;;0.65;0.60;;;;;;;21.19;43.52;99581.70;2150795;82;21061;-83
2022/07/17 12:15:26;;;;;;;4.08;0.78;;;;;;;21.15;44.57;99586.67;2156017;82;21037;-83
2022/07/17 12:18:27;;;;;;;2.22;1.00;;;;;;;21.19;44.45;99579.84;2144758;82;20983;-84
2022/07/17 12:21:28;;;;;;;0.85;0.45;;;;;;;21.31;44.43;99581.78;2153235;82;21117;-83
2022/07/17 12:24:29;;;;;;;2.95;0.65;;;;;;;21.49;44.05;99578.52;2153609;82;20982;-84
2022/07/17 12:27:30;;;;;;;1.57;0.70;;;;;;;21.61;44.06;99577.19;2136813;82;21049;-83
2022/07/17 12:30:32;;;;;;;1.80;0.60;;;;;;;21.66;43.41;99575.15;2149047;82;21106;-84
2022/07/17 12:33:33;;;;;;;2.30;0.70;;;;;;;21.55;43.92;99573.58;2157106;82;20998;-84
2022/07/17 12:36:34;;;;;;;3.17;0.90;;;;;;;21.51;44.42;99574.28;2148709;82;21037;-85
2022/07/17 12:39:34;;;;;;;1.72;0.80;;;;;;;21.48;44.65;99575.53;2152360;82;21061;-85
2022/07/17 12:42:35;;;;;;;0.90;0.55;;;;;;;21.50;45.34;99586.80;2156435;82;21022;-85
2022/07/17 12:45:36;;;;;;;2.85;0.70;;;;;;;21.52;44.28;99581.23;2156901;82;21520;-84
2022/07/17 12:48:38;;;;;;;2.67;0.90;;;;;;;21.64;45.18;99578.05;2152903;82;20982;-86
2022/07/17 12:51:39;;;;;;;1.70;0.60;;;;;;;21.87;45.63;99582.59;2141048;82;21009;-86
2022/07/17 12:54:40;;;;;;;1.15;1.05;;;;;;;22.11;43.65;99576.22;2152965;82;21045;-85
2022/07/17 12:57:40;;;;;;;1.42;0.50;;;;;;;22.40;44.68;99578.45;2157295;82;21033;-85
2022/07/17 13:00:41;;;;;;;0.82;0.65;;;;;;;22.68;43.59;99575.53;2153002;82;21021;-84
2022/07/17 13:03:42;;;;;;;2.00;0.57;;;;;;;22.87;43.97;99575.66;2158821;82;21002;-85
2022/07/17 13:06:43;;;;;;;2.15;0.72;;;;;;;23.07;43.55;99580.56;2151899;82;21058;-85
2022/07/17 13:09:43;;;;;;;2.10;0.93;;;;;;;23.29;42.61;99575.32;2156783;82;21025;-85
2022/07/17 13:12:44;;;;;;;1.87;0.75;;;;;;;23.41;43.16;99577.91;2157117;82;21013;-84
2022/07/17 13:15:45;;;;;;;3.33;1.05;;;;;;;23.45;42.77;99576.39;2137707;82;21092;-85
2022/07/17 13:18:46;;;;;;;1.55;0.82;;;;;;;23.42;41.18;99577.69;2148209;82;21536;-85
2022/07/17 13:21:46;;;;;;;2.40;0.90;;;;;;;23.34;41.66;99577.28;2152387;82;21074;-86
2022/07/17 13:24:47;;;;;;;4.60;0.98;;;;;;;23.34;42.15;99582.63;2151641;82;20998;-84
2022/07/17 13:27:48;;;;;;;5.85;1.00;;;;;;;23.35;42.55;99577.56;2152507;82;21069;-85
2022/07/17 13:30:49;;;;;;;3.40;0.65;;;;;;;23.37;41.93;99577.59;2148701;82;20986;-84
2022/07/17 13:33:50;;;;;;;2.40;0.60;;;;;;;23.44;42.51;99572.10;2157450;82;21010;-85
2022/07/17 13:36:50;;;;;;;5.62;2.72;;;;;;;23.45;41.24;99572.38;2150816;82;21030;-86
2022/07/17 13:39:51;;;;;;;2.08;0.80;;;;;;;23.52;42.63;99573.84;2146944;82;20998;-86
2022/07/17 13:42:52;;;;;;;1.30;0.90;;;;;;;23.57;41.68;99571.77;2152958;82;21042;-85
2022/07/17 13:45:53;;;;;;;3.70;0.82;;;;;;;23.52;41.10;99571.17;2126007;83;21772;-86
2022/07/17 13:48:53;;;;;;;1.40;0.78;;;;;;;23.67;41.08;99567.94;2144448;82;21037;-84
2022/07/17 13:51:54;;;;;;;2.55;0.65;;;;;;;23.89;40.81;99567.20;2144497;82;21085;-83
2022/07/17 13:54:55;;;;;;;2.83;0.80;;;;;;;24.03;40.55;99566.59;2147706;82;20983;-83
2022/07/17 13:57:56;;;;;;;15.45;12.13;;;;;;;24.06;38.95;99566.13;2152145;82;21524;-86
2022/07/17 14:00:56;;;;;;;7.28;6.58;;;;;;;23.91;39.50;99569.91;2156799;82;21058;-85
2022/07/17 14:03:57;;;;;;;4.78;2.98;;;;;;;23.70;38.64;99562.12;2152347;82;21034;-85
2022/07/17 14:06:58;;;;;;;3.85;3.40;;;;;;;23.63;38.96;99564.68;2152197;82;21006;-87
2022/07/17 14:09:59;;;;;;;1.80;1.57;;;;;;;23.57;39.15;99563.75;2147402;82;21147;-85